createdAt,value
2022-10-18T00:00:54.312Z,64.15
2022-10-18T00:01:51.042Z,64.17
2022-10-18T00:02:47.701Z,66.25
2022-10-18T00:03:44.394Z,64.86
2022-10-18T00:04:41.003Z,63.15
2022-10-18T00:05:37.680Z,63.87
2022-10-18T00:06:37.672Z,63.91
2022-10-18T00:07:39.215Z,65.41
2022-10-18T00:08:38.376Z,66.01
2022-10-18T00:09:35.972Z,65.67
2022-10-18T00:10:32.584Z,65.69
2022-10-18T00:11:30.922Z,65.34
2022-10-18T00:12:27.558Z,65.45
2022-10-18T00:13:24.647Z,66.18
2022-10-18T00:14:21.647Z,63.37
2022-10-18T00:15:18.891Z,65.29
2022-10-18T00:16:18.046Z,64.48
2022-10-18T00:17:14.594Z,65.79
2022-10-18T00:18:11.184Z,64.28
2022-10-18T00:19:07.731Z,63.44
2022-10-18T00:20:05.771Z,65.99
2022-10-18T00:21:08.569Z,64.28
2022-10-18T00:22:05.273Z,65.33
2022-10-18T00:23:01.958Z,66.54
2022-10-18T00:23:58.545Z,67.50
2022-10-18T00:24:55.137Z,67.97
2022-10-18T00:26:12.155Z,67.73
2022-10-18T00:27:08.829Z,67.27
2022-10-18T00:28:05.452Z,66.66
2022-10-18T00:29:04.713Z,66.02
2022-10-18T00:30:01.349Z,65.93
2022-10-18T00:30:58.157Z,67.25
2022-10-18T00:31:54.748Z,66.22
2022-10-18T00:32:51.316Z,65.88
2022-10-18T00:33:51.410Z,65.14
2022-10-18T00:34:48.145Z,65.46
2022-10-18T00:35:44.708Z,65.11
2022-10-18T00:36:42.195Z,64.75
2022-10-18T00:37:38.815Z,65.79
2022-10-18T00:38:35.759Z,65.03
2022-10-18T00:39:32.492Z,62.92
2022-10-18T00:40:29.048Z,62.78
2022-10-18T00:41:29.654Z,63.15
2022-10-18T00:42:31.715Z,65.95
2022-10-18T00:43:28.511Z,67.39
2022-10-18T00:44:25.025Z,67.69
2022-10-18T00:45:25.422Z,67.46
2022-10-18T00:46:22.150Z,67.64
2022-10-18T00:47:19.728Z,67.55
2022-10-18T00:48:19.038Z,67.89
2022-10-18T00:49:19.147Z,67.47
2022-10-18T00:50:16.102Z,68.40
2022-10-18T00:51:13.367Z,69.78
2022-10-18T00:52:15.393Z,70.31
2022-10-18T00:53:17.549Z,71.09
2022-10-18T00:54:16.202Z,71.50
2022-10-18T00:55:13.267Z,71.39
2022-10-18T00:56:09.948Z,71.37
2022-10-18T00:57:06.998Z,71.29
2022-10-18T00:58:04.984Z,71.23
2022-10-18T00:59:01.992Z,71.18
2022-10-18T00:59:58.728Z,71.10
2022-10-18T01:00:55.333Z,71.40
2022-10-18T01:01:52.076Z,71.25
2022-10-18T01:02:48.822Z,71.06
2022-10-18T01:03:45.636Z,69.93
2022-10-18T01:04:42.337Z,69.31
2022-10-18T01:05:44.934Z,69.88
2022-10-18T01:07:07.768Z,70.59
2022-10-18T01:08:36.406Z,68.63
2022-10-18T01:09:56.257Z,69.25
2022-10-18T01:11:05.080Z,68.40
2022-10-18T01:12:18.102Z,70.21
2022-10-18T01:13:29.084Z,69.63
2022-10-18T01:14:51.850Z,69.82
2022-10-18T01:16:17.465Z,69.39
2022-10-18T01:17:29.598Z,70.47
2022-10-18T01:18:29.093Z,69.84
2022-10-18T01:20:03.428Z,69.84
2022-10-18T01:21:23.153Z,70.40
2022-10-18T01:22:28.081Z,70.07
2022-10-18T01:23:59.854Z,69.67
2022-10-18T01:25:06.324Z,69.60
2022-10-18T01:26:25.476Z,69.08
2022-10-18T01:27:40.638Z,67.93
2022-10-18T01:29:14.644Z,69.51
2022-10-18T01:30:14.010Z,71.47
2022-10-18T01:31:33.090Z,71.94
2022-10-18T01:32:54.370Z,71.32
2022-10-18T01:33:56.745Z,72.20
2022-10-18T01:34:55.975Z,72.05
2022-10-18T01:36:00.104Z,71.58
2022-10-18T01:36:57.658Z,71.59
2022-10-18T01:37:59.179Z,72.43
2022-10-18T01:38:59.197Z,71.87
2022-10-18T01:39:58.741Z,72.33
2022-10-18T01:40:57.927Z,72.51
2022-10-18T01:41:56.512Z,71.75
2022-10-18T01:42:53.190Z,71.48
2022-10-18T01:43:56.079Z,71.73
2022-10-18T01:44:54.559Z,72.02
2022-10-18T01:45:53.967Z,71.45
2022-10-18T01:46:54.219Z,71.80
2022-10-18T01:47:52.391Z,71.55
2022-10-18T01:48:49.940Z,71.86
2022-10-18T01:49:46.882Z,71.55
2022-10-18T01:50:43.538Z,71.49
2022-10-18T01:51:40.167Z,71.76
2022-10-18T01:52:48.310Z,71.43
2022-10-18T01:53:44.899Z,72.39
2022-10-18T01:54:50.954Z,71.82
2022-10-18T01:55:57.652Z,72.62
2022-10-18T01:57:24.703Z,72.52
2022-10-18T01:58:30.477Z,72.63
2022-10-18T01:59:33.165Z,72.41
2022-10-18T02:00:42.491Z,72.22
2022-10-18T02:02:02.919Z,71.88
2022-10-18T02:03:09.289Z,71.42
2022-10-18T02:04:19.401Z,72.09
2022-10-18T02:05:32.201Z,71.26
2022-10-18T02:06:38.308Z,71.65
2022-10-18T02:08:12.317Z,72.29
2022-10-18T02:09:28.215Z,72.29
2022-10-18T02:10:46.391Z,72.80
2022-10-18T02:11:45.129Z,73.11
2022-10-18T02:12:44.544Z,72.97
2022-10-18T02:13:47.279Z,72.65
2022-10-18T02:14:45.624Z,72.26
2022-10-18T02:15:47.211Z,72.21
2022-10-18T02:16:49.402Z,72.60
2022-10-18T02:17:47.134Z,73.04
2022-10-18T02:18:55.656Z,72.81
2022-10-18T02:19:55.786Z,73.21
2022-10-18T02:20:54.525Z,72.48
2022-10-18T02:21:52.954Z,72.34
2022-10-18T02:22:51.136Z,72.00
2022-10-18T02:23:49.242Z,72.06
2022-10-18T02:24:51.132Z,72.08
2022-10-18T02:25:47.981Z,71.81
2022-10-18T02:26:44.849Z,72.67
2022-10-18T02:27:41.606Z,72.90
2022-10-18T02:28:38.972Z,72.63
2022-10-18T02:29:36.560Z,72.73
2022-10-18T02:30:50.036Z,73.65
2022-10-18T02:31:49.565Z,73.61
2022-10-18T02:32:57.444Z,73.66
2022-10-18T02:33:58.594Z,72.68
2022-10-18T02:35:04.945Z,72.09
2022-10-18T02:36:09.663Z,72.50
2022-10-18T02:37:06.301Z,72.25
2022-10-18T02:38:04.495Z,72.35
2022-10-18T02:39:06.714Z,72.86
2022-10-18T02:40:05.729Z,72.52
2022-10-18T02:41:02.348Z,73.11
2022-10-18T02:41:59.809Z,72.28
2022-10-18T02:42:57.678Z,71.80
2022-10-18T02:43:57.423Z,72.72
2022-10-18T02:44:54.601Z,73.77
2022-10-18T02:45:51.622Z,73.27
2022-10-18T02:46:48.657Z,73.47
2022-10-18T02:47:45.457Z,72.75
2022-10-18T02:48:42.002Z,72.79
2022-10-18T02:49:38.568Z,73.73
2022-10-18T02:50:35.137Z,73.87
2022-10-18T02:51:32.104Z,74.49
2022-10-18T02:52:28.666Z,74.59
2022-10-18T02:53:25.217Z,73.72
2022-10-18T02:54:22.990Z,73.42
2022-10-18T02:55:19.764Z,72.87
2022-10-18T02:56:16.787Z,72.52
2022-10-18T02:57:13.345Z,71.64
2022-10-18T02:58:09.988Z,71.60
2022-10-18T02:59:07.544Z,73.25
2022-10-18T03:00:05.730Z,72.90
2022-10-18T03:01:02.315Z,72.64
2022-10-18T03:01:58.905Z,73.89
2022-10-18T03:02:55.571Z,74.14
2022-10-18T03:03:52.198Z,73.63
2022-10-18T03:04:48.785Z,73.36
2022-10-18T03:05:45.354Z,73.29
2022-10-18T03:06:42.003Z,73.23
2022-10-18T03:07:38.705Z,73.87
2022-10-18T03:08:36.312Z,74.59
2022-10-18T03:09:33.005Z,74.57
2022-10-18T03:10:29.574Z,74.13
2022-10-18T03:11:26.131Z,72.85
2022-10-18T03:12:22.709Z,73.63
2022-10-18T03:13:19.405Z,73.24
2022-10-18T03:14:16.011Z,73.02
2022-10-18T03:15:12.593Z,74.12
2022-10-18T03:16:09.285Z,74.15
2022-10-18T03:17:05.844Z,73.63
2022-10-18T03:18:02.483Z,72.54
2022-10-18T03:18:59.072Z,71.92
2022-10-18T03:19:55.690Z,72.58
2022-10-18T03:20:52.305Z,72.56
2022-10-18T03:21:49.023Z,71.69
2022-10-18T03:22:45.577Z,71.73
2022-10-18T03:23:42.352Z,72.38
2022-10-18T03:24:38.920Z,70.72
2022-10-18T03:25:35.560Z,71.65
2022-10-18T03:26:32.214Z,72.02
2022-10-18T03:27:28.916Z,70.76
2022-10-18T03:28:25.679Z,71.20
2022-10-18T03:29:22.321Z,72.04
2022-10-18T03:30:18.947Z,72.30
2022-10-18T03:31:15.550Z,71.60
2022-10-18T03:32:12.112Z,71.65
2022-10-18T03:33:08.707Z,72.06
2022-10-18T03:34:05.338Z,71.77
2022-10-18T03:35:01.882Z,73.25
2022-10-18T03:35:58.544Z,72.71
2022-10-18T03:36:55.122Z,73.22
2022-10-18T03:37:51.710Z,73.14
2022-10-18T03:38:48.301Z,73.33
2022-10-18T03:39:44.832Z,72.37
2022-10-18T03:40:41.483Z,73.66
2022-10-18T03:41:38.079Z,74.90
2022-10-18T03:42:34.899Z,74.25
2022-10-18T03:43:31.942Z,73.22
2022-10-18T03:44:28.615Z,74.03
2022-10-18T03:45:28.976Z,74.24
2022-10-18T03:46:27.897Z,73.37
2022-10-18T03:47:24.539Z,72.34
2022-10-18T03:48:21.205Z,71.90
2022-10-18T03:49:17.784Z,73.04
2022-10-18T03:50:14.481Z,74.38
2022-10-18T03:51:11.182Z,75.48
2022-10-18T03:52:07.788Z,76.03
2022-10-18T03:53:04.499Z,75.68
2022-10-18T03:54:01.136Z,76.18
2022-10-18T03:54:57.739Z,75.57
2022-10-18T03:55:55.331Z,75.90
2022-10-18T03:56:51.877Z,74.04
2022-10-18T03:57:48.474Z,74.84
2022-10-18T03:58:45.052Z,74.81
2022-10-18T03:59:41.645Z,75.03
2022-10-18T04:00:38.204Z,74.90
2022-10-18T04:01:34.841Z,73.93
2022-10-18T04:02:32.010Z,74.21
2022-10-18T04:03:28.879Z,75.03
2022-10-18T04:04:25.450Z,75.16
2022-10-18T04:05:24.062Z,74.56
2022-10-18T04:06:20.699Z,74.14
2022-10-18T04:07:17.265Z,74.63
2022-10-18T04:08:14.745Z,74.56
2022-10-18T04:09:11.416Z,75.76
2022-10-18T04:10:08.469Z,76.09
2022-10-18T04:11:08.406Z,76.88
2022-10-18T04:12:05.222Z,76.50
2022-10-18T04:13:01.794Z,76.02
2022-10-18T04:13:58.423Z,75.60
2022-10-18T04:14:55.702Z,75.50
2022-10-18T04:15:52.374Z,75.70
2022-10-18T04:16:49.014Z,75.97
2022-10-18T04:17:45.694Z,76.40
2022-10-18T04:18:42.927Z,75.56
2022-10-18T04:19:41.016Z,75.11
2022-10-18T04:20:37.572Z,74.63
2022-10-18T04:21:34.209Z,75.55
2022-10-18T04:22:30.807Z,75.87
2022-10-18T04:23:27.386Z,76.15
2022-10-18T04:24:24.052Z,76.54
2022-10-18T04:25:22.139Z,76.58
2022-10-18T04:26:18.774Z,77.14
2022-10-18T04:27:15.373Z,76.27
2022-10-18T04:28:11.936Z,76.21
2022-10-18T04:29:08.562Z,77.42
2022-10-18T04:30:05.907Z,77.54
2022-10-18T04:31:02.481Z,77.79
2022-10-18T04:31:59.418Z,78.06
2022-10-18T04:32:55.967Z,79.06
2022-10-18T04:33:52.533Z,78.52
2022-10-18T04:34:49.162Z,78.36
2022-10-18T04:35:46.488Z,77.64
2022-10-18T04:36:43.104Z,77.54
2022-10-18T04:37:39.700Z,76.98
2022-10-18T04:38:36.365Z,77.09
2022-10-18T04:39:32.928Z,75.79
2022-10-18T04:40:29.510Z,75.28
2022-10-18T04:41:26.228Z,75.14
2022-10-18T04:42:23.316Z,76.10
2022-10-18T04:43:19.994Z,75.78
2022-10-18T04:44:16.547Z,75.92
2022-10-18T04:45:13.419Z,76.04
2022-10-18T04:46:10.031Z,76.43
2022-10-18T04:47:06.694Z,75.66
2022-10-18T04:48:03.550Z,76.00
2022-10-18T04:49:01.626Z,75.97
2022-10-18T04:49:58.193Z,75.95
2022-10-18T04:50:54.857Z,76.23
2022-10-18T04:51:51.423Z,76.37
2022-10-18T04:52:47.986Z,76.59
2022-10-18T04:53:44.535Z,76.64
2022-10-18T04:54:41.156Z,77.18
2022-10-18T04:55:37.727Z,76.20
2022-10-18T04:56:34.291Z,76.02
2022-10-18T04:57:31.158Z,77.04
2022-10-18T04:58:27.901Z,77.83
2022-10-18T04:59:24.533Z,77.67
2022-10-18T05:00:21.206Z,77.18
2022-10-18T05:01:19.043Z,77.20
2022-10-18T05:02:15.659Z,76.96
2022-10-18T05:03:13.930Z,76.63
2022-10-18T05:04:10.503Z,76.29
2022-10-18T05:05:10.317Z,77.07
2022-10-18T05:06:10.468Z,77.09
2022-10-18T05:07:07.164Z,75.93
2022-10-18T05:08:04.380Z,76.53
2022-10-18T05:09:00.933Z,76.00
2022-10-18T05:09:57.574Z,76.39
2022-10-18T05:10:54.368Z,75.65
2022-10-18T05:11:51.140Z,76.18
2022-10-18T05:12:47.861Z,74.76
2022-10-18T05:13:47.194Z,73.72
2022-10-18T05:14:46.658Z,72.92
2022-10-18T05:15:43.250Z,73.03
2022-10-18T05:16:39.849Z,73.32
2022-10-18T05:17:36.595Z,73.25
2022-10-18T05:18:33.185Z,73.93
2022-10-18T05:19:29.805Z,74.50
2022-10-18T05:20:26.381Z,75.18
2022-10-18T05:21:22.931Z,74.34
2022-10-18T05:22:19.502Z,73.88
2022-10-18T05:23:16.063Z,73.48
2022-10-18T05:24:12.874Z,73.18
2022-10-18T05:25:09.816Z,73.26
2022-10-18T05:26:07.834Z,72.65
2022-10-18T05:27:04.408Z,72.42
2022-10-18T05:28:06.290Z,71.76
2022-10-18T05:29:07.747Z,71.66
2022-10-18T05:30:05.776Z,71.64
2022-10-18T05:31:04.757Z,70.86
2022-10-18T05:32:01.322Z,70.75
2022-10-18T05:32:57.891Z,70.40
2022-10-18T05:33:54.490Z,70.85
2022-10-18T05:34:51.110Z,70.42
2022-10-18T05:35:47.666Z,69.96
2022-10-18T05:36:44.268Z,70.67
2022-10-18T05:37:40.870Z,70.60
2022-10-18T05:38:42.972Z,69.16
2022-10-18T05:39:39.795Z,68.95
2022-10-18T05:40:38.844Z,68.59
2022-10-18T05:41:36.750Z,68.54
2022-10-18T05:42:33.607Z,67.79
2022-10-18T05:43:30.426Z,67.48
2022-10-18T05:44:27.051Z,67.63
2022-10-18T05:45:23.624Z,67.14
2022-10-18T05:46:20.341Z,67.11
2022-10-18T05:47:16.931Z,66.29
2022-10-18T05:48:13.702Z,65.83
2022-10-18T05:49:12.995Z,65.50
2022-10-18T05:50:09.847Z,65.58
2022-10-18T05:51:06.447Z,66.19
2022-10-18T05:52:03.044Z,66.71
2022-10-18T05:53:11.844Z,66.97
2022-10-18T05:54:14.436Z,66.02
2022-10-18T05:55:11.045Z,65.35
2022-10-18T05:56:07.964Z,65.21
2022-10-18T05:57:04.530Z,65.25
2022-10-18T05:58:01.730Z,64.96
2022-10-18T05:58:58.327Z,64.90
2022-10-18T05:59:54.960Z,65.13
2022-10-18T06:00:52.011Z,65.11
2022-10-18T06:01:48.567Z,65.90
2022-10-18T06:02:45.119Z,65.16
2022-10-18T06:03:41.774Z,64.69
2022-10-18T06:04:38.329Z,64.12
2022-10-18T06:05:34.962Z,65.11
2022-10-18T06:06:32.850Z,65.38
2022-10-18T06:07:29.548Z,65.10
2022-10-18T06:08:26.380Z,65.15
2022-10-18T06:09:23.097Z,64.99
2022-10-18T06:10:19.886Z,64.87
2022-10-18T06:11:18.155Z,65.49
2022-10-18T06:12:14.803Z,65.35
2022-10-18T06:13:11.390Z,65.46
2022-10-18T06:14:08.327Z,64.63
2022-10-18T06:15:05.434Z,64.64
2022-10-18T06:16:02.124Z,64.16
2022-10-18T06:16:58.674Z,65.20
2022-10-18T06:17:55.314Z,65.24
2022-10-18T06:18:54.166Z,64.42
2022-10-18T06:19:50.809Z,63.93
2022-10-18T06:20:47.587Z,63.42
2022-10-18T06:21:44.444Z,63.62
2022-10-18T06:22:40.994Z,64.14
2022-10-18T06:23:37.575Z,63.52
2022-10-18T06:24:34.109Z,63.28
2022-10-18T06:25:30.786Z,63.67
2022-10-18T06:26:28.333Z,63.65
2022-10-18T06:27:24.934Z,64.06
2022-10-18T06:28:21.514Z,64.27
2022-10-18T06:29:18.154Z,63.51
2022-10-18T06:30:15.630Z,62.96
2022-10-18T06:31:13.795Z,63.00
2022-10-18T06:32:10.376Z,63.21
2022-10-18T06:33:07.106Z,63.01
2022-10-18T06:34:04.455Z,62.79
2022-10-18T06:35:01.129Z,63.51
2022-10-18T06:36:24.120Z,63.11
2022-10-18T06:37:20.750Z,63.06
2022-10-18T06:38:17.309Z,62.88
2022-10-18T06:39:13.951Z,62.47
2022-10-18T06:40:11.147Z,62.14
2022-10-18T06:41:08.855Z,61.61
2022-10-18T06:42:05.440Z,61.82
2022-10-18T06:43:19.480Z,61.98
2022-10-18T06:44:17.894Z,61.81
2022-10-18T06:45:16.240Z,61.64
2022-10-18T06:46:12.822Z,62.28
2022-10-18T06:47:09.533Z,61.56
2022-10-18T06:48:06.616Z,61.68
2022-10-18T06:49:03.204Z,62.07
2022-10-18T06:49:59.933Z,61.99
2022-10-18T06:50:59.064Z,61.10
2022-10-18T06:51:55.674Z,62.13
2022-10-18T06:52:52.655Z,62.43
2022-10-18T06:53:59.606Z,61.85
2022-10-18T06:55:09.157Z,61.35
2022-10-18T06:56:08.346Z,60.68
2022-10-18T06:57:04.935Z,61.03
2022-10-18T06:58:01.844Z,61.46
2022-10-18T06:59:59.896Z,61.68
2022-10-18T07:00:57.047Z,60.42
2022-10-18T07:01:53.748Z,59.89
2022-10-18T07:02:51.814Z,59.88
2022-10-18T07:03:51.874Z,59.76
2022-10-18T07:04:48.462Z,60.40
2022-10-18T07:05:44.990Z,60.10
2022-10-18T07:06:41.623Z,59.79
2022-10-18T07:07:38.353Z,59.98
2022-10-18T07:08:35.197Z,59.74
2022-10-18T07:09:31.784Z,59.66
2022-10-18T07:10:28.448Z,59.52
2022-10-18T07:11:27.090Z,58.51
2022-10-18T07:12:23.708Z,58.19
2022-10-18T07:13:32.532Z,58.40
2022-10-18T07:14:29.716Z,57.35
2022-10-18T07:15:26.567Z,57.56
2022-10-18T07:16:23.223Z,57.15
2022-10-18T07:17:19.771Z,56.01
2022-10-18T07:18:16.783Z,56.95
2022-10-18T07:19:14.979Z,56.25
2022-10-18T07:20:12.370Z,55.92
2022-10-18T07:21:13.374Z,55.97
2022-10-18T07:22:09.940Z,55.13
2022-10-18T07:23:08.642Z,55.63
2022-10-18T07:24:05.437Z,55.64
2022-10-18T07:25:02.004Z,54.87
2022-10-18T07:25:58.746Z,54.92
2022-10-18T07:26:55.416Z,54.94
2022-10-18T07:27:52.134Z,55.33
2022-10-18T07:28:52.238Z,54.67
2022-10-18T07:29:49.728Z,55.08
2022-10-18T07:30:46.383Z,54.41
2022-10-18T07:31:43.115Z,53.89
2022-10-18T07:32:39.726Z,53.89
2022-10-18T07:33:40.069Z,53.72
2022-10-18T07:34:36.692Z,54.45
2022-10-18T07:35:33.275Z,54.69
2022-10-18T07:36:30.709Z,54.63
2022-10-18T07:37:29.422Z,54.98
2022-10-18T07:38:26.811Z,55.26
2022-10-18T07:39:23.528Z,55.80
2022-10-18T07:40:20.127Z,55.85
2022-10-18T07:41:16.712Z,55.32
2022-10-18T07:42:13.299Z,55.08
2022-10-18T07:43:12.138Z,55.10
2022-10-18T07:44:09.229Z,54.94
2022-10-18T07:45:06.149Z,54.79
2022-10-18T07:46:05.434Z,54.44
2022-10-18T07:47:02.068Z,54.18
2022-10-18T07:47:58.922Z,53.82
2022-10-18T07:48:56.366Z,53.50
2022-10-18T07:49:52.925Z,53.96
2022-10-18T07:50:49.802Z,54.45
2022-10-18T07:51:46.529Z,54.29
2022-10-18T07:52:43.087Z,54.39
2022-10-18T07:53:39.895Z,54.99
2022-10-18T07:54:36.541Z,54.72
2022-10-18T07:55:33.611Z,54.48
2022-10-18T07:56:30.312Z,54.01
2022-10-18T07:57:26.901Z,53.94
2022-10-18T07:58:23.503Z,53.01
2022-10-18T07:59:20.037Z,54.00
2022-10-18T08:00:16.729Z,53.36
2022-10-18T08:01:14.998Z,53.97
2022-10-18T08:02:11.769Z,53.44
2022-10-18T08:03:08.429Z,53.32
2022-10-18T08:04:07.921Z,53.54
2022-10-18T08:05:06.549Z,52.52
2022-10-18T08:06:05.044Z,53.44
2022-10-18T08:07:01.623Z,53.91
2022-10-18T08:07:58.187Z,52.36
2022-10-18T08:08:54.877Z,53.13
2022-10-18T08:09:51.432Z,52.13
2022-10-18T08:10:48.540Z,52.91
2022-10-18T08:11:45.109Z,54.42
2022-10-18T08:12:41.892Z,54.58
2022-10-18T08:13:38.575Z,53.96
2022-10-18T08:14:35.135Z,54.56
2022-10-18T08:15:31.775Z,55.50
2022-10-18T08:17:29.188Z,54.35
2022-10-18T08:18:25.926Z,54.02
2022-10-18T08:19:22.605Z,53.80
2022-10-18T08:20:30.281Z,54.90
2022-10-18T08:21:27.648Z,52.66
2022-10-18T08:22:24.306Z,53.30
2022-10-18T08:23:20.891Z,53.37
2022-10-18T08:24:17.536Z,53.49
2022-10-18T08:25:14.144Z,51.48
2022-10-18T08:26:14.050Z,52.07
2022-10-18T08:27:10.614Z,51.65
2022-10-18T08:28:07.784Z,51.22
2022-10-18T08:29:21.143Z,51.78
2022-10-18T08:30:19.275Z,51.43
2022-10-18T08:31:18.241Z,51.12
2022-10-18T08:32:14.851Z,51.33
2022-10-18T08:33:11.480Z,50.91
2022-10-18T08:34:08.068Z,52.05
2022-10-18T08:35:06.952Z,52.12
2022-10-18T08:36:08.640Z,52.55
2022-10-18T08:37:05.482Z,51.63
2022-10-18T08:38:02.342Z,52.23
2022-10-18T08:38:58.925Z,50.34
2022-10-18T08:39:55.511Z,51.35
2022-10-18T08:40:52.310Z,51.82
2022-10-18T08:41:54.885Z,50.25
2022-10-18T08:43:00.679Z,49.15
2022-10-18T08:44:10.638Z,49.67
2022-10-18T08:45:17.974Z,48.62
2022-10-18T08:46:27.704Z,49.43
2022-10-18T08:47:35.185Z,48.60
2022-10-18T08:48:48.737Z,48.25
2022-10-18T08:49:50.628Z,49.05
2022-10-18T08:50:48.488Z,48.25
2022-10-18T08:51:50.875Z,49.62
2022-10-18T08:53:11.077Z,49.52
2022-10-18T08:54:16.772Z,48.57
2022-10-18T08:55:20.140Z,48.49
2022-10-18T08:56:21.702Z,48.85
2022-10-18T08:57:18.657Z,48.12
2022-10-18T08:58:15.340Z,48.26
2022-10-18T08:59:13.433Z,48.08
2022-10-18T09:00:17.174Z,48.64
2022-10-18T09:01:37.629Z,48.69
2022-10-18T09:02:47.460Z,48.22
2022-10-18T09:04:27.226Z,48.40
2022-10-18T09:05:52.627Z,48.22
2022-10-18T09:07:14.047Z,48.49
2022-10-18T09:08:32.278Z,47.01
2022-10-18T09:09:45.152Z,46.07
2022-10-18T09:10:55.887Z,45.69
2022-10-18T09:12:14.368Z,45.47
2022-10-18T09:13:44.870Z,45.82
2022-10-18T09:14:51.793Z,45.16
2022-10-18T09:15:59.942Z,44.45
2022-10-18T09:17:11.299Z,45.58
2022-10-18T09:18:36.343Z,44.59
2022-10-18T09:19:47.936Z,46.01
2022-10-18T09:20:49.448Z,45.59
2022-10-18T09:21:52.996Z,44.71
2022-10-18T09:22:59.827Z,44.80
2022-10-18T09:24:14.306Z,45.47
2022-10-18T09:25:19.759Z,44.48
2022-10-18T09:26:21.591Z,44.86
2022-10-18T09:27:20.773Z,45.46
2022-10-18T09:28:52.394Z,43.73
2022-10-18T09:29:54.756Z,41.60
2022-10-18T09:31:25.598Z,42.04
2022-10-18T09:32:29.968Z,42.09
2022-10-18T09:33:48.484Z,43.09
2022-10-18T09:34:56.996Z,42.68
2022-10-18T09:36:00.409Z,41.42
2022-10-18T09:36:57.480Z,40.07
2022-10-18T09:38:03.445Z,39.79
2022-10-18T09:39:05.267Z,40.83
2022-10-18T09:40:21.612Z,40.04
2022-10-18T09:41:34.627Z,39.87
2022-10-18T09:42:42.240Z,38.79
2022-10-18T09:43:43.815Z,39.78
2022-10-18T09:44:47.535Z,40.55
2022-10-18T09:45:45.864Z,40.75
2022-10-18T09:46:47.898Z,41.15
2022-10-18T09:47:49.971Z,40.78
2022-10-18T09:48:54.564Z,40.01
2022-10-18T09:49:57.003Z,39.93
2022-10-18T09:50:56.206Z,40.06
2022-10-18T09:51:54.125Z,40.37
2022-10-18T09:53:02.487Z,39.39
2022-10-18T09:54:11.161Z,39.18
2022-10-18T09:55:22.350Z,37.48
2022-10-18T09:56:25.350Z,38.48
2022-10-18T09:57:25.560Z,37.10
2022-10-18T09:58:26.753Z,37.53
2022-10-18T09:59:23.286Z,38.31
2022-10-18T10:00:32.081Z,37.82
2022-10-18T10:01:33.408Z,36.46
2022-10-18T10:02:30.060Z,38.05
2022-10-18T10:03:26.731Z,37.00
2022-10-18T10:04:23.343Z,36.73
2022-10-18T10:05:20.419Z,36.23
2022-10-18T10:06:21.214Z,36.50
2022-10-18T10:07:32.544Z,35.95
2022-10-18T10:08:33.900Z,35.73
2022-10-18T10:09:44.148Z,36.11
2022-10-18T10:10:47.584Z,35.81
2022-10-18T10:11:47.630Z,35.50
2022-10-18T10:12:45.944Z,35.00
2022-10-18T10:13:42.583Z,35.77
2022-10-18T10:14:45.265Z,35.72
2022-10-18T10:16:00.230Z,35.10
2022-10-18T10:17:05.741Z,35.30
2022-10-18T10:18:20.514Z,34.72
2022-10-18T10:19:33.126Z,33.19
2022-10-18T10:20:44.277Z,33.53
2022-10-18T10:21:40.892Z,32.21
2022-10-18T10:22:40.159Z,33.90
2022-10-18T10:23:52.957Z,33.30
2022-10-18T10:24:50.834Z,32.73
2022-10-18T10:25:56.455Z,34.15
2022-10-18T10:27:00.460Z,34.62
2022-10-18T10:28:22.707Z,34.35
2022-10-18T10:29:47.195Z,34.12
2022-10-18T10:30:44.085Z,33.71
2022-10-18T10:31:40.716Z,31.88
2022-10-18T10:32:47.903Z,33.52
2022-10-18T10:33:47.697Z,32.93
2022-10-18T10:34:45.044Z,32.74
2022-10-18T10:35:53.008Z,33.00
2022-10-18T10:36:53.166Z,32.19
2022-10-18T10:37:54.438Z,33.25
2022-10-18T10:39:07.967Z,33.69
2022-10-18T10:40:19.030Z,32.00
2022-10-18T10:41:22.437Z,32.96
2022-10-18T10:42:19.099Z,32.21
2022-10-18T10:43:44.810Z,32.25
2022-10-18T10:44:55.112Z,32.53
2022-10-18T10:45:57.802Z,31.43
2022-10-18T10:46:55.184Z,31.21
2022-10-18T10:47:55.816Z,29.97
2022-10-18T10:49:15.318Z,31.44
2022-10-18T10:50:14.055Z,29.99
2022-10-18T10:51:11.648Z,30.38
2022-10-18T10:52:27.395Z,28.87
2022-10-18T10:53:35.897Z,28.80
2022-10-18T10:54:37.299Z,28.00
2022-10-18T10:55:35.917Z,29.14
2022-10-18T10:56:36.162Z,29.94
2022-10-18T10:57:33.155Z,28.36
2022-10-18T10:58:36.654Z,28.81
2022-10-18T10:59:44.802Z,30.24
2022-10-18T11:00:44.438Z,30.27
2022-10-18T11:01:41.983Z,28.83
2022-10-18T11:02:39.511Z,29.24
2022-10-18T11:03:36.322Z,29.50
2022-10-18T11:04:33.106Z,28.19
2022-10-18T11:05:29.830Z,28.82
2022-10-18T11:06:50.240Z,28.63
2022-10-18T11:07:47.938Z,28.92
2022-10-18T11:10:09.727Z,27.75
2022-10-18T11:11:28.595Z,27.94
2022-10-18T11:12:39.825Z,28.51
2022-10-18T11:14:25.640Z,28.69
2022-10-18T11:15:32.897Z,29.82
2022-10-18T11:16:56.952Z,28.22
2022-10-18T11:18:02.701Z,27.39
2022-10-18T11:19:04.037Z,28.76
2022-10-18T11:20:23.765Z,27.74
2022-10-18T11:21:26.618Z,27.92
2022-10-18T11:22:25.950Z,28.43
2022-10-18T11:23:29.143Z,28.47
2022-10-18T11:24:25.882Z,30.58
2022-10-18T11:25:26.023Z,28.30
2022-10-18T11:26:25.579Z,29.38
2022-10-18T11:27:30.421Z,27.30
2022-10-18T11:28:36.187Z,27.51
2022-10-18T11:29:44.837Z,27.79
2022-10-18T11:31:22.882Z,27.68
2022-10-18T11:32:31.429Z,28.04
2022-10-18T11:34:08.120Z,28.20
2022-10-18T11:35:22.684Z,27.37
2022-10-18T11:36:30.605Z,27.25
2022-10-18T11:37:40.864Z,27.82
2022-10-18T11:38:43.160Z,25.97
2022-10-18T11:39:42.655Z,26.07
2022-10-18T11:40:55.475Z,25.99
2022-10-18T11:42:01.572Z,24.83
2022-10-18T11:42:58.116Z,25.92
2022-10-18T11:44:03.632Z,26.20
2022-10-18T11:45:19.322Z,26.09
2022-10-18T11:46:40.062Z,25.72
2022-10-18T11:48:12.542Z,25.63
2022-10-18T11:49:11.713Z,24.43
2022-10-18T11:50:20.475Z,24.10
2022-10-18T11:51:34.040Z,23.41
2022-10-18T11:52:53.839Z,24.14
2022-10-18T11:54:03.084Z,24.11
2022-10-18T11:55:53.421Z,25.49
2022-10-18T11:56:58.749Z,24.71
2022-10-18T11:58:10.049Z,24.81
2022-10-18T11:59:29.096Z,25.38
2022-10-18T12:00:50.464Z,25.77
2022-10-18T12:02:03.416Z,25.23
2022-10-18T12:03:29.241Z,24.83
2022-10-18T12:04:33.943Z,25.72
2022-10-18T12:05:32.591Z,24.95
2022-10-18T12:06:42.239Z,24.07
2022-10-18T12:08:21.571Z,24.43
2022-10-18T12:09:31.529Z,25.17
2022-10-18T12:10:52.830Z,25.13
2022-10-18T12:12:07.902Z,24.57
2022-10-18T12:13:08.169Z,24.67
2022-10-18T12:14:13.830Z,25.52
2022-10-18T12:15:19.187Z,24.63
2022-10-18T12:16:33.559Z,22.98
2022-10-18T12:17:45.108Z,23.50
2022-10-18T12:18:59.134Z,23.04
2022-10-18T12:19:59.386Z,21.12
2022-10-18T12:20:58.458Z,23.03
2022-10-18T12:22:10.635Z,22.61
2022-10-18T12:23:18.719Z,22.42
2022-10-18T12:24:20.552Z,22.45
2022-10-18T12:25:19.090Z,22.63
2022-10-18T12:26:17.308Z,21.74
2022-10-18T12:27:15.942Z,22.17
2022-10-18T12:28:34.294Z,23.56
2022-10-18T12:29:38.260Z,22.05
2022-10-18T12:30:50.598Z,22.63
2022-10-18T12:31:54.200Z,23.68
2022-10-18T12:33:08.703Z,22.28
2022-10-18T12:34:28.538Z,21.81
2022-10-18T12:35:26.706Z,21.04
2022-10-18T12:36:29.067Z,21.51
2022-10-18T12:37:53.066Z,24.11
2022-10-18T12:39:32.261Z,21.88
2022-10-18T12:40:43.696Z,20.95
2022-10-18T12:41:40.465Z,21.35
2022-10-18T12:42:43.859Z,21.07
2022-10-18T12:43:40.557Z,20.23
2022-10-18T12:44:37.158Z,21.00
2022-10-18T12:45:44.114Z,22.26
2022-10-18T12:46:52.797Z,20.49
2022-10-18T12:47:51.364Z,22.63
2022-10-18T12:49:04.788Z,22.91
2022-10-18T12:50:04.238Z,20.99
2022-10-18T12:51:16.342Z,21.73
2022-10-18T12:52:24.972Z,20.66
2022-10-18T12:53:29.735Z,22.80
2022-10-18T12:54:37.495Z,21.83
2022-10-18T12:55:37.767Z,22.24
2022-10-18T12:56:42.613Z,21.89
2022-10-18T12:58:03.777Z,21.86
2022-10-18T12:59:15.853Z,20.97
2022-10-18T13:00:32.417Z,21.59
2022-10-18T13:01:48.969Z,21.82
2022-10-18T13:02:45.758Z,21.36
2022-10-18T13:03:54.568Z,22.49
2022-10-18T13:04:51.451Z,22.80
2022-10-18T13:05:55.541Z,21.92
2022-10-18T13:07:12.646Z,21.05
2022-10-18T13:08:27.314Z,21.18
2022-10-18T13:09:31.491Z,21.82
2022-10-18T13:10:36.269Z,22.13
2022-10-18T13:11:36.093Z,20.86
2022-10-18T13:12:52.916Z,22.33
2022-10-18T13:14:31.296Z,21.40
2022-10-18T13:15:50.198Z,21.98
2022-10-18T13:16:58.048Z,21.22
2022-10-18T13:18:03.091Z,21.53
2022-10-18T13:19:15.079Z,21.54
2022-10-18T13:20:25.503Z,22.18